Time;durP1;ratioP1;P1;durP2;ratioP2;P2;SDS_P1;SDS_P2;PMS_P1;PMS_P2;Temp;Humidity;BMP_temperature;BMP_pressure;BME280_temperature;BME280_humidity;BME280_pressure;Samples;Min_cycle;Max_cycle;Signal;HPM_P1;HPM_P2
2023/03/11 00:04:22;;;;;;;0.52;0.52;;;;;;;;;;10547360;28;20142;-80
2023/03/11 00:09:30;;;;;;;1.17;0.50;;;;;;;;;;10556714;28;20032;-78
2023/03/11 00:14:38;;;;;;;0.57;0.57;;;;;;;;;;10578447;28;20528;-79
2023/03/11 00:19:57;;;;;;;2.07;0.87;;;;;;;;;;10563423;28;20035;-80
2023/03/11 00:30:40;;;;;;;1.40;0.70;;;;;;;;;;10543324;27;20574;-81
2023/03/11 00:35:47;;;;;;;0.55;0.50;;;;;;;;;;10561959;27;20116;-81
2023/03/11 00:41:01;;;;;;;1.20;0.63;;;;;;;;;;10542216;27;20065;-79
2023/03/11 00:46:19;;;;;;;1.43;0.57;;;;;;;;;;10543108;27;20649;-81
2023/03/11 00:51:41;;;;;;;0.30;0.30;;;;;;;;;;10546558;28;20104;-79
2023/03/11 00:56:51;;;;;;;1.05;0.50;;;;;;;;;;10568060;27;20036;-80
2023/03/11 01:02:09;;;;;;;0.40;0.40;;;;;;;;;;10555600;28;20739;-79
2023/03/11 01:07:32;;;;;;;0.23;0.23;;;;;;;;;;10549167;28;20043;-80
2023/03/11 01:12:54;;;;;;;1.43;0.50;;;;;;;;;;10545792;28;20666;-80
2023/03/11 01:17:59;;;;;;;1.00;0.73;;;;;;;;;;10563056;27;20046;-79
2023/03/11 01:23:14;;;;;;;0.83;0.73;;;;;;;;;;10559754;27;20043;-78
2023/03/11 01:28:37;;;;;;;0.80;0.60;;;;;;;;;;10561150;27;20047;-81
2023/03/11 01:33:56;;;;;;;1.30;0.80;;;;;;;;;;10556700;28;20043;-82
2023/03/11 01:39:19;;;;;;;1.30;0.70;;;;;;;;;;10559079;28;20101;-79
2023/03/11 01:44:30;;;;;;;2.47;0.67;;;;;;;;;;10547926;27;20049;-78
2023/03/11 01:49:51;;;;;;;0.97;0.87;;;;;;;;;;10547094;28;20193;-80
2023/03/11 01:55:05;;;;;;;1.83;0.63;;;;;;;;;;10561921;28;20056;-79
2023/03/11 02:00:17;;;;;;;0.27;0.27;;;;;;;;;;10542060;27;20045;-79
2023/03/11 02:05:25;;;;;;;0.57;0.57;;;;;;;;;;10541512;27;20505;-81
2023/03/11 02:16:19;;;;;;;0.40;0.40;;;;;;;;;;10559204;28;20473;-80
2023/03/11 02:21:27;;;;;;;1.23;0.70;;;;;;;;;;10556447;28;20092;-78
2023/03/11 02:26:41;;;;;;;0.60;0.60;;;;;;;;;;10555171;28;20082;-79
2023/03/11 02:31:54;;;;;;;0.60;0.60;;;;;;;;;;10550924;28;20040;-79
2023/03/11 02:37:19;;;;;;;1.47;0.70;;;;;;;;;;10554749;27;20067;-78
2023/03/11 02:42:55;;;;;;;0.33;0.33;;;;;;;;;;10570467;28;20048;-80
2023/03/11 02:48:30;;;;;;;0.50;0.47;;;;;;;;;;10566859;28;20935;-80
2023/03/11 02:53:41;;;;;;;0.70;0.60;;;;;;;;;;10511991;28;20055;-80
2023/03/11 02:58:50;;;;;;;0.57;0.50;;;;;;;;;;10486158;28;20129;-80
2023/03/11 03:09:41;;;;;;;1.03;0.70;;;;;;;;;;10556332;28;20040;-79
2023/03/11 03:15:02;;;;;;;0.60;0.40;;;;;;;;;;10563716;27;20067;-80
2023/03/11 03:20:42;;;;;;;1.07;0.57;;;;;;;;;;10557833;28;20119;-80
2023/03/11 03:25:52;;;;;;;1.03;0.57;;;;;;;;;;10532013;28;20247;-80
2023/03/11 03:31:03;;;;;;;0.97;0.73;;;;;;;;;;10556484;28;20366;-80
2023/03/11 03:36:15;;;;;;;0.73;0.60;;;;;;;;;;10550634;28;20032;-80
2023/03/11 03:41:33;;;;;;;0.27;0.20;;;;;;;;;;10543592;28;20047;-78
2023/03/11 03:47:07;;;;;;;0.50;0.30;;;;;;;;;;10546795;28;20449;-79
2023/03/11 03:52:27;;;;;;;0.60;0.30;;;;;;;;;;10527732;28;20171;-79
2023/03/11 03:57:44;;;;;;;0.30;0.27;;;;;;;;;;10559606;27;20048;-81
2023/03/11 04:03:06;;;;;;;4.47;0.50;;;;;;;;;;10559307;28;20035;-81
2023/03/11 04:08:33;;;;;;;0.30;0.30;;;;;;;;;;10560985;27;20039;-80
2023/03/11 04:13:54;;;;;;;0.63;0.40;;;;;;;;;;10557699;28;20129;-80
2023/03/11 04:19:07;;;;;;;0.60;0.53;;;;;;;;;;10538838;27;20770;-81
2023/03/11 04:29:45;;;;;;;0.30;0.30;;;;;;;;;;10567253;28;20071;-78
2023/03/11 04:35:09;;;;;;;0.43;0.40;;;;;;;;;;10547989;27;20040;-79
2023/03/11 04:45:48;;;;;;;2.33;0.43;;;;;;;;;;10545758;28;20131;-79
2023/03/11 04:50:56;;;;;;;2.13;0.80;;;;;;;;;;10547541;28;20106;-80
2023/03/11 04:56:09;;;;;;;0.10;0.10;;;;;;;;;;10550975;27;20520;-81
2023/03/11 05:01:33;;;;;;;2.07;0.70;;;;;;;;;;10559602;28;20065;-80
2023/03/11 05:06:52;;;;;;;0.33;0.30;;;;;;;;;;10533737;28;20095;-78
2023/03/11 05:12:12;;;;;;;0.53;0.40;;;;;;;;;;10529180;27;20151;-78
2023/03/11 05:17:29;;;;;;;1.03;0.57;;;;;;;;;;10540091;27;20035;-78
2023/03/11 05:22:45;;;;;;;0.83;0.60;;;;;;;;;;10530318;28;20050;-79
2023/03/11 05:27:52;;;;;;;1.10;0.80;;;;;;;;;;10547135;28;20040;-78
2023/03/11 05:33:00;;;;;;;0.93;0.77;;;;;;;;;;10510359;28;20506;-77
2023/03/11 05:38:12;;;;;;;1.40;0.90;;;;;;;;;;10543560;27;20089;-79
2023/03/11 05:43:31;;;;;;;0.85;0.35;;;;;;;;;;10527800;28;20124;-78
2023/03/11 05:48:45;;;;;;;1.10;0.53;;;;;;;;;;10539925;28;20048;-80
2023/03/11 05:54:03;;;;;;;1.60;0.70;;;;;;;;;;10538135;28;20132;-79
2023/03/11 05:59:21;;;;;;;2.43;0.87;;;;;;;;;;10554263;27;20142;-80
2023/03/11 06:04:27;;;;;;;0.80;0.70;;;;;;;;;;10544630;28;20043;-81
2023/03/11 06:09:47;;;;;;;0.93;0.80;;;;;;;;;;10551963;28;20056;-79
2023/03/11 06:20:32;;;;;;;2.40;0.50;;;;;;;;;;10547852;28;20400;-80
2023/03/11 06:25:56;;;;;;;0.60;0.60;;;;;;;;;;10560762;27;20279;-79
2023/03/11 06:31:13;;;;;;;2.37;1.10;;;;;;;;;;10548451;28;20126;-79
2023/03/11 06:36:29;;;;;;;0.67;0.43;;;;;;;;;;10573650;27;20051;-79
2023/03/11 06:41:43;;;;;;;1.47;0.60;;;;;;;;;;10559802;27;20233;-78
2023/03/11 06:46:51;;;;;;;1.30;0.90;;;;;;;;;;10538285;28;20043;-81
2023/03/11 06:52:06;;;;;;;3.03;0.90;;;;;;;;;;10551415;28;20115;-80
2023/03/11 06:57:18;;;;;;;1.83;1.03;;;;;;;;;;10537945;28;20067;-81
2023/03/11 07:07:57;;;;;;;1.20;0.95;;;;;;;;;;10563862;27;20051;-80
2023/03/11 07:23:56;;;;;;;1.05;0.63;;;;;;;;;;10473103;28;20411;-81
2023/03/11 07:29:00;;;;;;;1.27;1.08;;;;;;;;;;10447092;28;20048;-76
2023/03/11 07:34:04;;;;;;;2.78;0.60;;;;;;;;;;10445742;28;20103;-77
2023/03/11 07:39:12;;;;;;;0.77;0.77;;;;;;;;;;10447371;28;20052;-79
2023/03/11 07:44:16;;;;;;;2.47;1.50;;;;;;;;;;10454324;28;20041;-80
2023/03/11 07:49:19;;;;;;;1.92;1.48;;;;;;;;;;10437456;28;20120;-80
2023/03/11 07:54:23;;;;;;;1.92;1.33;;;;;;;;;;10448148;28;20053;-82
2023/03/11 07:59:28;;;;;;;3.10;1.35;;;;;;;;;;10434726;28;20045;-83
2023/03/11 08:04:30;;;;;;;;;;;;;;;;;;10433094;28;20045;-81
2023/03/11 08:09:35;;;;;;;1.80;1.63;;;;;;;;;;10435419;28;19988;-82
2023/03/11 08:14:39;;;;;;;4.20;2.00;;;;;;;;;;10435675;28;20089;-82
2023/03/11 08:19:42;;;;;;;3.55;1.63;;;;;;;;;;10429972;28;20041;-82
2023/03/11 08:24:45;;;;;;;;;;;;;;;;;;10464367;28;20091;-83
2023/03/11 08:29:50;;;;;;;3.70;1.60;;;;;;;;;;10432743;28;19931;-79
2023/03/11 08:34:52;;;;;;;6.43;2.80;;;;;;;;;;10405067;28;20041;-78
2023/03/11 08:39:55;;;;;;;3.17;1.50;;;;;;;;;;10400999;28;20052;-81
2023/03/11 08:44:59;;;;;;;1.30;1.20;;;;;;;;;;10405169;28;20084;-80
2023/03/11 08:50:04;;;;;;;3.13;1.30;;;;;;;;;;10396373;28;20033;-81
2023/03/11 08:55:10;;;;;;;9.35;3.70;;;;;;;;;;10405128;28;20079;-83
2023/03/11 09:00:15;;;;;;;4.25;1.45;;;;;;;;;;10406633;28;20104;-82
2023/03/11 09:05:18;;;;;;;2.30;1.10;;;;;;;;;;10409564;28;20399;-83
2023/03/11 09:10:20;;;;;;;3.25;0.98;;;;;;;;;;10406299;28;20052;-82
2023/03/11 09:15:26;;;;;;;1.30;1.20;;;;;;;;;;10421029;28;20050;-81
2023/03/11 09:20:29;;;;;;;3.03;1.92;;;;;;;;;;10407791;28;20040;-83
2023/03/11 09:25:33;;;;;;;;;;;;;;;;;;10402334;28;20049;-81
2023/03/11 09:30:40;;;;;;;1.83;1.60;;;;;;;;;;10400911;28;19931;-82
2023/03/11 09:35:43;;;;;;;2.88;1.95;;;;;;;;;;10403100;28;20045;-81
2023/03/11 09:40:56;;;;;;;1.98;1.50;;;;;;;;;;10396814;28;20071;-80
2023/03/11 09:46:04;;;;;;;1.35;1.00;;;;;;;;;;10401490;28;20037;-81
2023/03/11 09:51:11;;;;;;;2.08;1.85;;;;;;;;;;10398289;28;20107;-81
2023/03/11 09:56:17;;;;;;;1.88;1.10;;;;;;;;;;10399519;28;20048;-82
2023/03/11 10:01:25;;;;;;;2.63;1.08;;;;;;;;;;10400930;28;20400;-82
2023/03/11 10:06:29;;;;;;;1.70;1.60;;;;;;;;;;10400108;28;20487;-82
2023/03/11 10:11:44;;;;;;;1.58;1.52;;;;;;;;;;10399170;28;20029;-81
2023/03/11 10:16:52;;;;;;;2.15;1.80;;;;;;;;;;10399251;28;20102;-81
2023/03/11 10:22:07;;;;;;;3.00;1.00;;;;;;;;;;10398700;28;20057;-82
2023/03/11 10:27:21;;;;;;;2.67;1.27;;;;;;;;;;10397149;28;20124;-82
2023/03/11 10:32:38;;;;;;;1.20;0.80;;;;;;;;;;10398009;28;20065;-78
2023/03/11 10:37:44;;;;;;;0.85;0.85;;;;;;;;;;10403054;28;20048;-82
2023/03/11 10:42:52;;;;;;;1.90;1.80;;;;;;;;;;10399159;28;20045;-80
2023/03/11 10:47:57;;;;;;;2.00;1.27;;;;;;;;;;10395762;28;20114;-81
2023/03/11 10:53:08;;;;;;;1.98;1.70;;;;;;;;;;10402761;28;20109;-80
2023/03/11 10:58:12;;;;;;;2.40;0.95;;;;;;;;;;10402196;28;20030;-81
2023/03/11 11:03:21;;;;;;;2.15;0.90;;;;;;;;;;10400866;28;20385;-81
2023/03/11 11:08:24;;;;;;;2.55;1.30;;;;;;;;;;10407628;28;20491;-81
2023/03/11 11:13:30;;;;;;;3.53;1.25;;;;;;;;;;10408403;28;20228;-81
2023/03/11 11:18:36;;;;;;;1.33;1.23;;;;;;;;;;10402553;28;20525;-80
2023/03/11 11:23:41;;;;;;;3.30;1.60;;;;;;;;;;10419362;28;20865;-81
2023/03/11 11:28:45;;;;;;;2.67;1.40;;;;;;;;;;10400645;28;20141;-81
2023/03/11 11:33:51;;;;;;;2.72;1.40;;;;;;;;;;10411851;28;20040;-81
2023/03/11 11:38:54;;;;;;;2.50;1.50;;;;;;;;;;10409402;28;20045;-81
2023/03/11 11:43:59;;;;;;;1.55;1.17;;;;;;;;;;10412546;28;20034;-82
2023/03/11 11:49:08;;;;;;;2.72;1.60;;;;;;;;;;10414678;28;20068;-81
2023/03/11 11:54:16;;;;;;;2.15;1.15;;;;;;;;;;10405954;28;20083;-82
2023/03/11 11:59:20;;;;;;;1.58;1.48;;;;;;;;;;10399900;28;20069;-82
2023/03/11 12:04:38;;;;;;;1.63;1.50;;;;;;;;;;10428813;28;20124;-80
2023/03/11 12:09:48;;;;;;;2.20;1.80;;;;;;;;;;10403413;28;20069;-81
2023/03/11 12:14:56;;;;;;;2.17;1.60;;;;;;;;;;10439662;28;20484;-81
2023/03/11 12:20:10;;;;;;;5.43;1.80;;;;;;;;;;10410089;28;20287;-81
2023/03/11 12:25:27;;;;;;;2.13;1.60;;;;;;;;;;10404623;28;20040;-83
2023/03/11 12:30:31;;;;;;;1.70;1.60;;;;;;;;;;10402229;28;20491;-81
2023/03/11 12:35:36;;;;;;;2.25;1.60;;;;;;;;;;10410994;28;20038;-81
2023/03/11 12:40:45;;;;;;;1.60;1.50;;;;;;;;;;10420953;28;20049;-81
2023/03/11 12:45:49;;;;;;;1.92;1.50;;;;;;;;;;10405650;28;20038;-81
2023/03/11 12:50:54;;;;;;;1.77;1.58;;;;;;;;;;10412728;28;20048;-82
2023/03/11 12:56:02;;;;;;;1.25;1.10;;;;;;;;;;10406427;28;20048;-82
2023/03/11 13:01:21;;;;;;;2.88;1.70;;;;;;;;;;10410852;28;20030;-81
2023/03/11 13:06:39;;;;;;;1.83;1.60;;;;;;;;;;10405473;28;20103;-82
2023/03/11 13:11:45;;;;;;;2.15;1.55;;;;;;;;;;10398977;28;20045;-82
2023/03/11 13:16:48;;;;;;;3.20;1.38;;;;;;;;;;10400606;28;20156;-81
2023/03/11 13:21:51;;;;;;;3.38;1.60;;;;;;;;;;10399392;28;20045;-81
2023/03/11 13:26:56;;;;;;;2.20;1.60;;;;;;;;;;10400675;28;20041;-80
2023/03/11 13:32:05;;;;;;;1.65;1.42;;;;;;;;;;10394578;28;20038;-81
2023/03/11 13:37:17;;;;;;;2.40;1.50;;;;;;;;;;10397873;28;20162;-80
2023/03/11 13:42:34;;;;;;;4.20;1.60;;;;;;;;;;10398049;28;20030;-81
2023/03/11 13:47:36;;;;;;;1.42;1.33;;;;;;;;;;10401231;28;20045;-81
2023/03/11 13:52:44;;;;;;;1.90;1.65;;;;;;;;;;10400485;28;20041;-81
2023/03/11 13:57:51;;;;;;;2.70;1.23;;;;;;;;;;10399774;28;20134;-80
2023/03/11 14:02:55;;;;;;;3.17;1.30;;;;;;;;;;10399976;28;20495;-81
2023/03/11 14:08:11;;;;;;;2.50;1.45;;;;;;;;;;10399439;28;20521;-80
2023/03/11 14:13:17;;;;;;;2.58;1.40;;;;;;;;;;10397182;28;20029;-81
2023/03/11 14:18:35;;;;;;;1.95;1.55;;;;;;;;;;10402553;28;20037;-81
2023/03/11 14:23:42;;;;;;;2.80;1.60;;;;;;;;;;10390998;28;20594;-81
2023/03/11 14:28:49;;;;;;;1.88;1.50;;;;;;;;;;10399665;28;20045;-81
2023/03/11 14:33:57;;;;;;;2.35;1.40;;;;;;;;;;10403172;28;20503;-81
2023/03/11 14:39:00;;;;;;;2.30;1.30;;;;;;;;;;10404973;28;20052;-81
2023/03/11 14:44:06;;;;;;;2.17;1.33;;;;;;;;;;10405654;28;20561;-82
2023/03/11 14:49:14;;;;;;;1.25;1.15;;;;;;;;;;10395205;28;20049;-82
2023/03/11 14:54:21;;;;;;;3.20;1.48;;;;;;;;;;10398858;28;20036;-80
2023/03/11 14:59:26;;;;;;;1.98;1.33;;;;;;;;;;10403303;28;20430;-80
2023/03/11 15:04:31;;;;;;;2.80;1.23;;;;;;;;;;10401248;28;20559;-80
2023/03/11 15:09:39;;;;;;;3.83;1.50;;;;;;;;;;10400909;28;20499;-82
2023/03/11 15:14:53;;;;;;;3.33;1.63;;;;;;;;;;10396597;28;20037;-80
2023/03/11 15:19:55;;;;;;;2.10;1.40;;;;;;;;;;10393856;28;20048;-79
2023/03/11 15:24:59;;;;;;;4.93;1.60;;;;;;;;;;10397900;28;20037;-81
2023/03/11 15:30:05;;;;;;;2.70;1.30;;;;;;;;;;10396584;28;20582;-81
2023/03/11 15:35:13;;;;;;;1.83;1.52;;;;;;;;;;10397093;28;20721;-81
2023/03/11 15:40:21;;;;;;;1.92;1.30;;;;;;;;;;10397561;28;20059;-79
2023/03/11 15:45:36;;;;;;;1.95;1.20;;;;;;;;;;10403098;28;20179;-80
2023/03/11 15:50:46;;;;;;;1.90;1.52;;;;;;;;;;10402089;28;20103;-80
2023/03/11 15:55:57;;;;;;;2.03;1.30;;;;;;;;;;10405662;28;20479;-81
2023/03/11 16:01:11;;;;;;;1.65;1.23;;;;;;;;;;10406505;28;20507;-80
2023/03/11 16:06:13;;;;;;;3.67;1.67;;;;;;;;;;10414474;28;20390;-80
2023/03/11 16:11:17;;;;;;;2.60;1.00;;;;;;;;;;10404980;28;20095;-81
2023/03/11 16:16:21;;;;;;;3.83;1.65;;;;;;;;;;10404271;28;20061;-82
2023/03/11 16:21:29;;;;;;;3.58;1.60;;;;;;;;;;10405839;28;20193;-81
2023/03/11 16:26:32;;;;;;;3.42;1.60;;;;;;;;;;10404628;28;20207;-80
2023/03/11 16:31:38;;;;;;;5.47;1.48;;;;;;;;;;10406118;28;20305;-81
2023/03/11 16:36:48;;;;;;;2.90;2.03;;;;;;;;;;10404382;28;20498;-80
2023/03/11 16:42:01;;;;;;;2.05;1.30;;;;;;;;;;10401917;28;20034;-80
2023/03/11 16:47:06;;;;;;;4.85;2.00;;;;;;;;;;10400687;28;20396;-81
2023/03/11 16:52:09;;;;;;;2.00;1.50;;;;;;;;;;10403706;28;20370;-82
2023/03/11 16:57:12;;;;;;;2.03;1.83;;;;;;;;;;10407639;28;20037;-82
2023/03/11 17:02:17;;;;;;;2.97;1.70;;;;;;;;;;10408707;28;20088;-80
2023/03/11 17:07:22;;;;;;;2.05;1.42;;;;;;;;;;10415272;28;20467;-81
2023/03/11 17:12:25;;;;;;;3.90;1.60;;;;;;;;;;10420658;28;20049;-80
2023/03/11 17:17:30;;;;;;;2.57;1.47;;;;;;;;;;10413736;28;20057;-79
2023/03/11 17:22:33;;;;;;;2.85;1.50;;;;;;;;;;10417598;28;20074;-80
2023/03/11 17:27:36;;;;;;;4.90;1.88;;;;;;;;;;10413422;28;20475;-81
2023/03/11 17:32:40;;;;;;;2.33;1.40;;;;;;;;;;10410771;28;20030;-81
2023/03/11 17:37:43;;;;;;;2.70;1.50;;;;;;;;;;10402862;28;20120;-80
2023/03/11 17:42:46;;;;;;;4.35;1.40;;;;;;;;;;10403126;28;20494;-81
2023/03/11 17:47:51;;;;;;;4.77;2.03;;;;;;;;;;10393622;28;20063;-82
2023/03/11 17:52:55;;;;;;;2.50;1.65;;;;;;;;;;10394486;28;20645;-81
2023/03/11 17:57:59;;;;;;;2.60;1.70;;;;;;;;;;10398547;28;20211;-81
2023/03/11 18:03:03;;;;;;;6.45;2.90;;;;;;;;;;10399359;28;20118;-80
2023/03/11 18:08:06;;;;;;;3.38;1.77;;;;;;;;;;10402539;28;20060;-81
2023/03/11 18:13:09;;;;;;;2.75;1.50;;;;;;;;;;10397196;28;20029;-81
2023/03/11 18:18:13;;;;;;;6.85;2.45;;;;;;;;;;10402959;28;20042;-81
2023/03/11 18:23:17;;;;;;;3.40;1.70;;;;;;;;;;10388054;28;20046;-81
2023/03/11 18:28:20;;;;;;;2.00;1.37;;;;;;;;;;10398704;28;20371;-79
2023/03/11 18:33:24;;;;;;;4.22;1.50;;;;;;;;;;10401134;28;20391;-79
2023/03/11 18:38:28;;;;;;;2.38;1.42;;;;;;;;;;10392448;28;20128;-80
2023/03/11 18:43:31;;;;;;;3.58;1.80;;;;;;;;;;10398484;28;20060;-80
2023/03/11 18:48:35;;;;;;;8.05;3.30;;;;;;;;;;10400959;28;20113;-80
2023/03/11 18:53:37;;;;;;;4.78;2.00;;;;;;;;;;10428490;28;20038;-80
2023/03/11 18:58:42;;;;;;;2.92;1.60;;;;;;;;;;10399641;28;20073;-80
2023/03/11 19:03:48;;;;;;;2.58;1.58;;;;;;;;;;10399624;28;20064;-80
2023/03/11 19:08:53;;;;;;;10.10;3.30;;;;;;;;;;10397606;28;20033;-80
2023/03/11 19:13:56;;;;;;;4.83;2.23;;;;;;;;;;10392311;28;20095;-79
2023/03/11 19:19:00;;;;;;;13.53;4.73;;;;;;;;;;10397805;28;20037;-80
2023/03/11 19:24:03;;;;;;;4.87;1.97;;;;;;;;;;10395655;28;20052;-82
2023/03/11 19:29:06;;;;;;;4.07;2.17;;;;;;;;;;10398515;28;20052;-80
2023/03/11 19:34:09;;;;;;;3.83;2.00;;;;;;;;;;10393984;28;20053;-81
2023/03/11 19:39:13;;;;;;;6.23;2.70;;;;;;;;;;10397768;28;20045;-79
2023/03/11 19:44:17;;;;;;;5.43;2.70;;;;;;;;;;10399940;28;20049;-81
2023/03/11 19:49:21;;;;;;;7.13;2.80;;;;;;;;;;10395424;28;20045;-80
2023/03/11 19:54:25;;;;;;;6.57;3.08;;;;;;;;;;10397486;28;20140;-80
2023/03/11 19:59:38;;;;;;;4.10;2.33;;;;;;;;;;10397905;28;20407;-80
2023/03/11 20:04:43;;;;;;;4.43;2.00;;;;;;;;;;10398757;28;20464;-79
2023/03/11 20:09:45;;;;;;;8.40;3.28;;;;;;;;;;10399135;28;20483;-80
2023/03/11 20:14:49;;;;;;;13.03;4.17;;;;;;;;;;10392577;28;20041;-80
2023/03/11 20:19:53;;;;;;;6.60;2.40;;;;;;;;;;10400506;28;20200;-80
2023/03/11 20:24:56;;;;;;;7.05;3.33;;;;;;;;;;10398561;28;20050;-79
2023/03/11 20:29:58;;;;;;;6.27;2.67;;;;;;;;;;10401681;28;20057;-80
2023/03/11 20:35:03;;;;;;;4.47;1.90;;;;;;;;;;10401322;28;20061;-81
2023/03/11 20:40:06;;;;;;;4.47;2.22;;;;;;;;;;10405440;28;20048;-79
2023/03/11 20:45:09;;;;;;;6.13;2.53;;;;;;;;;;10403985;28;20052;-79
2023/03/11 20:50:13;;;;;;;7.77;2.20;;;;;;;;;;10397691;28;20075;-79
2023/03/11 20:55:17;;;;;;;;;;;;;;;;;;10403951;28;20193;-81
2023/03/11 21:00:21;;;;;;;;;;;;;;;;;;10404027;28;20484;-81
2023/03/11 21:05:35;;;;;;;4.90;1.57;;;;;;;;;;10403734;28;20345;-80
2023/03/11 21:10:42;;;;;;;6.57;2.17;;;;;;;;;;10400641;28;20414;-82
2023/03/11 21:15:55;;;;;;;4.67;1.83;;;;;;;;;;10407887;28;20585;-79
2023/03/11 21:21:22;;;;;;;16.03;4.70;;;;;;;;;;10402512;28;20048;-80
2023/03/11 21:26:49;;;;;;;14.20;4.83;;;;;;;;;;10399181;28;20125;-79
2023/03/11 21:32:03;;;;;;;6.83;2.00;;;;;;;;;;10395346;28;20121;-81
2023/03/11 21:37:18;;;;;;;5.70;2.10;;;;;;;;;;10400862;28;20072;-82
2023/03/11 21:42:33;;;;;;;7.73;1.90;;;;;;;;;;10400409;28;20142;-80
2023/03/11 21:47:46;;;;;;;2.97;1.50;;;;;;;;;;10400340;28;20049;-80
2023/03/11 21:53:16;;;;;;;1.13;1.00;;;;;;;;;;10397095;28;20053;-80
2023/03/11 21:58:40;;;;;;;5.00;1.70;;;;;;;;;;10398347;28;20392;-79
2023/03/11 22:03:59;;;;;;;1.20;0.87;;;;;;;;;;10404151;28;20033;-82
2023/03/11 22:09:26;;;;;;;1.23;0.93;;;;;;;;;;10406856;28;20029;-80
2023/03/11 22:14:44;;;;;;;0.73;0.70;;;;;;;;;;10409105;28;20493;-79
2023/03/11 22:19:54;;;;;;;3.73;1.60;;;;;;;;;;10411164;28;20069;-79
2023/03/11 22:25:11;;;;;;;4.70;1.50;;;;;;;;;;10414564;28;20043;-80
2023/03/11 22:30:32;;;;;;;4.60;1.43;;;;;;;;;;10414540;28;20049;-80
2023/03/11 22:36:06;;;;;;;3.87;1.80;;;;;;;;;;10441718;28;20486;-80
2023/03/11 22:41:15;;;;;;;4.83;1.90;;;;;;;;;;10405226;28;20491;-79
2023/03/11 22:46:34;;;;;;;6.90;1.90;;;;;;;;;;10399478;28;20531;-80
2023/03/11 22:51:58;;;;;;;3.25;1.58;;;;;;;;;;10400739;28;20041;-79
2023/03/11 22:57:17;;;;;;;3.47;1.37;;;;;;;;;;10394720;28;20568;-80
2023/03/11 23:02:23;;;;;;;;;;;;;;;;;;10399115;28;20380;-80
2023/03/11 23:13:09;;;;;;;3.53;1.40;;;;;;;;;;10390902;28;20085;-80
2023/03/11 23:18:36;;;;;;;2.27;1.40;;;;;;;;;;10393059;28;20073;-78
2023/03/11 23:23:57;;;;;;;4.70;1.10;;;;;;;;;;10393986;28;20072;-78
2023/03/11 23:29:13;;;;;;;2.07;0.90;;;;;;;;;;10396235;28;20144;-79
2023/03/11 23:34:36;;;;;;;3.23;0.93;;;;;;;;;;10397975;28;20045;-76
2023/03/11 23:39:47;;;;;;;7.13;2.33;;;;;;;;;;10394902;28;20042;-82
2023/03/11 23:44:54;;;;;;;6.37;1.93;;;;;;;;;;10392952;28;20909;-79
2023/03/11 23:50:01;;;;;;;5.03;2.20;;;;;;;;;;10391094;28;20045;-79
2023/03/11 23:55:22;;;;;;;5.43;2.17;;;;;;;;;;10397262;28;20042;-79
